Bruck An Der Mur, Austria
Current Conditions -  °F | °C
As of 4:20 PM on Wednesday 28 Jan 2015 (Local Time) from LOWG Reporting Station
Few Clouds Few Clouds  
Wind Chill: 36°   Ceiling: Unl
Heat Index: 41°   Visibility: 6mi
Dew Point: 23°   Wind: 8mph
Humidity: 49%   Direction: 160°SSE
Pressure: 29.94"   Gusts: NA
Location:  47.42°N, 15.27°E
Report Text: LOWG 281420Z 16007KT 9999 FEW060 05/M05 Q1014 R17/1///95 NOSIG
Loading
Personal Weather Stations






























Interactive Weather Map New forecast layout! Learn more

10-Day Weather Forecast

Advertisements
Track Severe Weather on mobile